Detall de PIREP

Printer-friendly versionPDF version

[2013/11/20 10:52:00]
Flight IATA:CT0001
Pilot Number:042
Company ICAO:CAT
Aircraft Type:BE20/A
PAX:3
Departing Airport: LEMH
Destination Airport: LERS
Alternate Airport:LEVC
Online: VATSIM
Route:LUNIK A25 BCN
Flight Level:F150
No Slew and time accel
No pause
Crash detect
Detect pilot in Cockpit between each 30 and 45 minutes
10:52 Zero fuel Weight: 8738 Lbs, Fuel Weight: 3675 Lbs
10:52 VATSIM:LEMH 201030Z 01017KT 330V040 9999 FEW035 SCT046 09/02 Q1012
10:52 VATSIM:LERS 201030Z 27012KT 240V320 9999 FEW020 10/M02 Q1015
10:52 VOICE CATALONIAN
11:04 Parking Brakes off
11:09 Take-off
11:09 Take off Weight: 12355 Lbs
11:09 Wind: 014º @ 017 Knots Heading: 008º
11:09 POS N39º 51´ 55´´ E004º 13´ 08´´
11:09 Gear Up: 142 Knots
11:09 Flaps:1 at 142 Knots
11:09 Flaps:0 at 145 Knots
11:24 Wind:354º@026 Knots Heading: 313º Ground Speed: 241 Knots Altitude 9022 ft
11:39 Wind:298º@038 Knots Heading: 310º Ground Speed: 225 Knots Altitude 8999 ft
11:53 Flaps:1 at 200 Knots
11:54 Wind:299º@024 Knots Heading: 258º Ground Speed: 186 Knots Altitude 3569 ft
11:55 Gear Down: 147 Knots
11:55 Flaps:2 at 140 Knots
12:00 TouchDown:Rate -196 ft/min Speed: 102 Knots
12:00 VATSIM:LERS 201130Z 29010KT 250V330 9999 FEW025 12/M02 Q1013
12:00 Land
12:00 Wind:306º@010 Knots
12:00 Heading: 244º
12:00 Flight Duration: 00:51
12:00 Landing Weight: 11673 Lbs
12:00 POS N41º 08´ 43´´ E001º 09´ 36´´
12:02 Parking brakes on
12:02 Block to Block Duration: 00:58
12:02 Final Fuel: 2927 Lbls
12:02 Spent Fuel: 747 Lbls
12:02 Flight Length: 178 NM
12:02 TOD Land Length: 178 NM

Exportar CSV

Powered by Drupal - Modified by Danger4k